Observations for NORWICH WEA CNTRE, United Kingdom (EGSH)

EGSH 180250Z AUTO 19005KT 9999 NCD 02/01 Q1023  
EGSH 180220Z AUTO 19006KT 9999 FEW038/// 02/01 Q1023
EGSH 180150Z AUTO 19006KT 9999 BKN034/// BKN039/// 03/02 Q1023  
EGSH 180120Z AUTO 19007KT 9999 SCT036/// 03/01 Q1023
EGSH 180050Z AUTO 18007KT 9999 NCD 03/01 Q1023  
EGSH 180020Z AUTO 17006KT 9999 NCD 03/01 Q1023  
EGSH 172350Z AUTO 17006KT 9999 NCD 04/01 Q1023  
EGSH 172320Z AUTO 17007KT 9999 NCD 04/01 Q1023  
EGSH 172250Z AUTO 18007KT 9999 FEW040/// 05/01 Q1023
EGSH 172220Z AUTO 18008KT 9999 FEW042/// 05/02 Q1023
EGSH 172150Z AUTO 19008KT 9999 FEW043/// 05/01 Q1023
EGSH 172120Z AUTO 18008KT 9999 NCD 05/01 Q1023  
EGSH 172050Z 19007KT 9999 BKN048 05/01 Q1023 NOSIG  
EGSH 172020Z 18006KT 9999 BKN048 05/01 Q1023 NOSIG  
EGSH 171950Z 18008KT 9999 BKN048 05/01 Q1023 NOSIG  
EGSH 171920Z 18007KT 9999 BKN048 05/01 Q1023
EGSH 171850Z 18008KT 9999 BKN048 05/00 Q1023 NOSIG  
EGSH 171820Z 18007KT CAVOK 06/00 Q1023 NOSIG
EGSH 171750Z 17007KT CAVOK 06/00 Q1022 NOSIG
EGSH 171720Z 17007KT CAVOK 05/00 Q1022 NOSIG
EGSH 171650Z 18007KT CAVOK 06/00 Q1022 NOSIG
EGSH 171620Z 19007KT CAVOK 07/01 Q1022 NOSIG
EGSH 171550Z 20008KT 9999 FEW037 08/01 Q1022 NOSIG  
EGSH 171520Z 20007KT 150V230 9999 FEW037 09/02 Q1022 NOSIG  
EGSH 171450Z 20008KT 9999 FEW037 08/01 Q1022 NOSIG  
EGSH 171420Z 20008KT 160V230 9999 FEW030 09/01 Q1022 NOSIG  
EGSH 171350Z 17009KT 150V210 9999 FEW030 09/01 Q1022 NOSIG  
EGSH 171320Z 19008KT 150V230 9999 FEW030 09/01 Q1022 NOSIG  
EGSH 171250Z 20009KT 9999 FEW030 09/02 Q1022 NOSIG  
EGSH 171220Z 18009KT 140V230 9999 FEW030 08/02 Q1022 NOSIG  
EGSH 171150Z 20010KT 150V220 9999 FEW030 08/03 Q1022 NOSIG  
EGSH 171120Z 19009KT CAVOK 08/03 Q1022 NOSIG
EGSH 171050Z 19007KT 150V220 9000 NSC 08/03 Q1022 NOSIG 
EGSH 171020Z 19006KT 140V220 8000 NSC 07/04 Q1022 NOSIG 
EGSH 170950Z 19006KT 8000 NSC 06/05 Q1022 NOSIG 
EGSH 170920Z 17004KT 140V200 7000 NSC 04/04 Q1022 NOSIG 
EGSH 170850Z 19003KT 6000 NSC 02/02 Q1022 NOSIG 
EGSH 170820Z VRB01KT 7000 R27/0400 MIFG NSC 00/00 Q1022 BECMG 9999 NSW  
EGSH 170750Z 19002KT 7000 BCFG NSC 00/M00 Q1022 BECMG 9999 NSW  
EGSH 170720Z 19003KT 7000 BCFG NSC 00/M00 Q1022 BECMG 9999  
EGSH 170650Z VRB02KT 1500 R27/0600 PRFG NSC M00/M00 Q1021 NOSIG 
EGSH 170620Z 10001KT 0900 R27/0400 MIFG NSC M00/M00 Q1021 NOSIG 
EGSH 170550Z 09002KT 0900 R27/0750 FZFG NSC M00/M01 Q1021 NOSIG 
EGSH 170520Z AUTO 11001KT 1300 BR NCD M00/M00 Q1022 
EGSH 170450Z AUTO VRB01KT 1800 BR NCD M01/M01 Q1022 
EGSH 170420Z AUTO VRB01KT 0550 FZFG NCD M00/M01 Q1022   
EGSH 170350Z AUTO 00000KT 1200 BR NCD 02/01 Q1022   
EGSH 170320Z AUTO 19004KT 9999 NCD 01/00 Q1022  
EGSH 170250Z AUTO 20005KT 9999 NCD 01/00 Q1022